Time,TemperatureF,DewpointF,PressureIn,WindDirection,WindDirectionDegrees,WindSpeedMPH,WindSpeedGustMPH,Humidity,HourlyPrecipIn,Conditions,Clouds,dailyrainin,SolarRadiationWatts/m^2,SoftwareType,DateUTC
2013-06-13 00:00:00,76.0,72.9,30.00,NW,322,0.0,0.0,90,0.00,,CLR,0.26,0.00,VWS V14.00,2013-06-13 04:00:00,
2013-06-13 00:01:00,76.0,72.9,30.00,NW,322,0.0,0.0,90,0.00,,CLR,0.26,0.00,VWS V14.00,2013-06-13 04:01:00,
2013-06-13 00:02:00,75.9,72.8,30.00,NW,322,0.0,0.0,90,0.00,,CLR,0.00,0.00,VWS V14.00,2013-06-13 04:02:00,
2013-06-13 00:07:00,75.9,72.8,30.00,NW,322,0.0,0.0,90,0.00,,CLR,0.00,0.00,VWS V14.00,2013-06-13 04:07:00,
2013-06-13 00:12:00,75.9,72.8,30.00,NW,322,0.0,0.0,90,0.00,,CLR,0.00,0.00,VWS V14.00,2013-06-13 04:12:00,
2013-06-13 00:17:00,75.9,72.8,29.99,NW,322,0.0,0.0,90,0.00,,CLR,0.00,0.00,VWS V14.00,2013-06-13 04:17:00,
2013-06-13 00:22:00,75.8,72.7,29.99,NW,322,0.0,0.0,90,0.00,,CLR,0.00,0.00,VWS V14.00,2013-06-13 04:22:00,
2013-06-13 00:28:00,75.8,72.7,29.99,NW,322,0.0,1.0,90,0.00,,CLR,0.00,0.00,VWS V14.00,2013-06-13 04:28:00,
2013-06-13 00:33:00,75.7,72.6,29.99,NW,322,0.0,0.0,90,0.00,,CLR,0.00,0.00,VWS V14.00,2013-06-13 04:33:00,
2013-06-13 00:38:00,75.6,72.5,29.99,NW,322,0.0,0.0,90,0.00,,CLR,0.00,0.00,VWS V14.00,2013-06-13 04:38:00,
2013-06-13 00:43:00,75.6,72.5,29.98,NW,322,0.0,0.0,90,0.00,,CLR,0.00,0.00,VWS V14.00,2013-06-13 04:43:00,
2013-06-13 00:48:00,75.6,72.5,29.99,NW,322,0.0,0.0,90,0.00,,CLR,0.00,0.00,VWS V14.00,2013-06-13 04:48:00,
2013-06-13 00:53:00,75.6,72.5,29.98,NW,322,0.0,0.0,90,0.00,,CLR,0.00,0.00,VWS V14.00,2013-06-13 04:53:00,
2013-06-13 00:58:00,75.6,72.5,29.98,NW,322,0.0,0.0,90,0.00,,CLR,0.00,0.00,VWS V14.00,2013-06-13 04:58:00,
2013-06-13 01:03:00,75.8,72.7,29.98,NW,322,0.0,0.0,90,0.00,,CLR,0.00,0.00,VWS V14.00,2013-06-13 05:03:00,
2013-06-13 01:08:00,75.8,72.7,29.98,NW,322,0.0,0.0,90,0.00,,CLR,0.00,0.00,VWS V14.00,2013-06-13 05:08:00,
2013-06-13 01:13:00,75.7,72.6,29.98,NW,322,0.0,0.0,90,0.00,,CLR,0.00,0.00,VWS V14.00,2013-06-13 05:13:00,
2013-06-13 01:18:00,75.7,72.6,29.98,NW,322,0.0,0.0,90,0.00,,CLR,0.00,0.00,VWS V14.00,2013-06-13 05:18:00,
2013-06-13 01:23:00,75.7,72.6,29.98,NW,322,0.0,0.0,90,0.00,,CLR,0.00,0.00,VWS V14.00,2013-06-13 05:23:00,
2013-06-13 01:28:00,75.7,72.6,29.98,NW,322,0.0,0.0,90,0.00,,CLR,0.00,0.00,VWS V14.00,2013-06-13 05:28:00,
2013-06-13 01:33:00,75.6,72.5,29.97,NW,322,0.0,0.0,90,0.00,,CLR,0.00,0.00,VWS V14.00,2013-06-13 05:33:00,
2013-06-13 01:38:00,75.5,72.4,29.98,NW,322,0.0,0.0,90,0.00,,CLR,0.00,0.00,VWS V14.00,2013-06-13 05:38:00,
2013-06-13 01:43:00,75.5,72.4,29.98,NW,322,0.0,0.0,90,0.00,,CLR,0.00,0.00,VWS V14.00,2013-06-13 05:43:00,
2013-06-13 01:48:00,75.5,72.4,29.97,NW,322,0.0,0.0,90,0.00,,CLR,0.00,0.00,VWS V14.00,2013-06-13 05:48:00,
2013-06-13 01:53:00,75.4,72.3,29.98,NW,322,0.0,0.0,90,0.00,,CLR,0.00,0.00,VWS V14.00,2013-06-13 05:53:00,
2013-06-13 01:58:00,75.4,72.3,29.97,NW,322,0.0,0.0,90,0.00,,CLR,0.00,0.00,VWS V14.00,2013-06-13 05:58:00,
2013-06-13 02:03:00,75.3,72.2,29.97,NW,322,0.0,0.0,90,0.00,,CLR,0.00,0.00,VWS V14.00,2013-06-13 06:03:00,
2013-06-13 02:08:00,75.3,72.2,29.97,NW,322,0.0,0.0,90,0.00,,CLR,0.00,0.00,VWS V14.00,2013-06-13 06:08:00,
2013-06-13 02:13:00,75.2,72.1,29.97,NW,322,0.0,0.0,90,0.00,,CLR,0.00,0.00,VWS V14.00,2013-06-13 06:13:00,
2013-06-13 02:18:00,75.1,72.0,29.97,NW,322,0.0,0.0,90,0.00,,CLR,0.00,0.00,VWS V14.00,2013-06-13 06:18:00,
2013-06-13 02:23:00,75.0,71.9,29.97,NW,322,0.0,0.0,90,0.00,,CLR,0.00,0.00,VWS V14.00,2013-06-13 06:23:00,
2013-06-13 02:28:00,74.9,72.1,29.97,NW,322,0.0,0.0,91,0.00,,CLR,0.00,0.00,VWS V14.00,2013-06-13 06:28:00,
2013-06-13 02:33:00,75.0,72.2,29.97,NW,322,0.0,0.0,91,0.00,,CLR,0.00,0.00,VWS V14.00,2013-06-13 06:33:00,
2013-06-13 02:38:00,75.0,72.2,29.97,NW,322,0.0,0.0,91,0.00,,CLR,0.00,0.00,VWS V14.00,2013-06-13 06:38:00,
2013-06-13 02:43:00,75.1,72.3,29.96,NW,322,0.0,0.0,91,0.00,,CLR,0.00,0.00,VWS V14.00,2013-06-13 06:43:00,
2013-06-13 02:48:00,75.1,72.3,29.96,NW,322,0.0,0.0,91,0.00,,CLR,0.00,0.00,VWS V14.00,2013-06-13 06:48:00,
2013-06-13 02:53:00,75.2,72.1,29.96,NW,322,0.0,0.0,90,0.00,,CLR,0.00,0.00,VWS V14.00,2013-06-13 06:53:00,
2013-06-13 02:58:00,75.2,72.1,29.96,NW,322,0.0,0.0,90,0.00,,CLR,0.00,0.00,VWS V14.00,2013-06-13 06:58:00,
2013-06-13 03:03:00,75.1,72.3,29.96,NW,322,0.0,0.0,91,0.00,,CLR,0.00,0.00,VWS V14.00,2013-06-13 07:03:00,
2013-06-13 03:08:00,75.1,72.3,29.96,NW,322,0.0,0.0,91,0.00,,CLR,0.00,0.00,VWS V14.00,2013-06-13 07:08:00,
2013-06-13 03:13:00,75.1,72.3,29.96,NW,322,0.0,0.0,91,0.00,,CLR,0.00,0.00,VWS V14.00,2013-06-13 07:13:00,
2013-06-13 03:18:00,74.9,72.1,29.96,NW,322,0.0,0.0,91,0.00,,CLR,0.00,0.00,VWS V14.00,2013-06-13 07:18:00,
2013-06-13 03:23:00,74.7,71.6,29.96,NW,322,0.0,0.0,90,0.00,,CLR,0.00,0.00,VWS V14.00,2013-06-13 07:23:00,
2013-06-13 03:28:00,74.8,71.7,29.96,NW,322,0.0,0.0,90,0.00,,CLR,0.00,0.00,VWS V14.00,2013-06-13 07:28:00,
2013-06-13 03:33:00,74.9,72.1,29.96,NW,322,0.0,0.0,91,0.00,,CLR,0.00,0.00,VWS V14.00,2013-06-13 07:33:00,
2013-06-13 03:38:00,74.9,72.1,29.96,NW,322,0.0,0.0,91,0.00,,CLR,0.00,0.00,VWS V14.00,2013-06-13 07:38:00,
2013-06-13 03:43:00,74.9,72.1,29.96,NW,322,0.0,0.0,91,0.00,,CLR,0.00,0.00,VWS V14.00,2013-06-13 07:43:00,
2013-06-13 03:48:00,74.7,71.6,29.96,NW,322,0.0,0.0,90,0.00,,CLR,0.00,0.00,VWS V14.00,2013-06-13 07:48:00,
2013-06-13 03:53:00,74.7,71.9,29.97,NW,322,0.0,0.0,91,0.00,,CLR,0.00,0.00,VWS V14.00,2013-06-13 07:53:00,
2013-06-13 03:58:00,74.9,72.1,29.97,NW,322,0.0,0.0,91,0.00,,CLR,0.00,0.00,VWS V14.00,2013-06-13 07:58:00,
2013-06-13 04:03:00,75.0,72.2,29.97,NW,322,0.0,0.0,91,0.00,,CLR,0.00,0.00,VWS V14.00,2013-06-13 08:03:00,
2013-06-13 04:09:00,74.9,72.1,29.97,NW,322,0.0,0.0,91,0.00,,CLR,0.00,0.00,VWS V14.00,2013-06-13 08:09:00,
2013-06-13 04:14:00,74.8,72.0,29.97,NW,322,0.0,0.0,91,0.00,,CLR,0.00,0.00,VWS V14.00,2013-06-13 08:14:00,
2013-06-13 04:19:00,74.9,72.1,29.96,NW,322,0.0,0.0,91,0.00,,CLR,0.00,0.00,VWS V14.00,2013-06-13 08:19:00,
2013-06-13 04:24:00,75.0,72.2,29.97,NW,322,0.0,0.0,91,0.00,,CLR,0.00,0.00,VWS V14.00,2013-06-13 08:24:00,
2013-06-13 04:29:00,75.1,72.3,29.96,NW,322,0.0,0.0,91,0.00,,CLR,0.00,0.00,VWS V14.00,2013-06-13 08:29:00,
2013-06-13 04:34:00,75.0,72.2,29.97,NW,322,0.0,0.0,91,0.00,,CLR,0.00,0.00,VWS V14.00,2013-06-13 08:34:00,
2013-06-13 04:41:00,74.9,72.1,29.97,NW,322,0.0,0.0,91,0.00,,CLR,0.00,0.00,VWS V14.00,2013-06-13 08:41:00,
2013-06-13 04:46:00,74.9,72.1,29.97,NW,322,0.0,0.0,91,0.00,,CLR,0.00,0.00,VWS V14.00,2013-06-13 08:46:00,
2013-06-13 04:51:00,74.8,72.0,29.96,NW,322,0.0,0.0,91,0.00,,CLR,0.00,0.00,VWS V14.00,2013-06-13 08:51:00,
2013-06-13 04:56:00,74.7,71.9,29.96,NW,322,0.0,0.0,91,0.00,,CLR,0.00,0.00,VWS V14.00,2013-06-13 08:56:00,
2013-06-13 05:01:00,74.6,71.8,29.96,NW,322,0.0,0.0,91,0.00,,CLR,0.00,0.00,VWS V14.00,2013-06-13 09:01:00,
2013-06-13 05:06:00,74.7,71.9,29.96,NW,322,0.0,0.0,91,0.00,,CLR,0.00,0.00,VWS V14.00,2013-06-13 09:06:00,
2013-06-13 05:11:00,74.7,71.9,29.96,NW,322,0.0,0.0,91,0.00,,CLR,0.00,0.00,VWS V14.00,2013-06-13 09:11:00,
2013-06-13 05:17:00,74.7,71.9,29.96,NW,322,0.0,0.0,91,0.00,,CLR,0.00,0.00,VWS V14.00,2013-06-13 09:17:00,
2013-06-13 05:22:00,74.9,72.1,29.96,NW,322,0.0,0.0,91,0.00,,CLR,0.00,0.00,VWS V14.00,2013-06-13 09:22:00,
2013-06-13 05:27:00,75.0,72.2,29.96,NW,322,0.0,0.0,91,0.00,,CLR,0.00,0.00,VWS V14.00,2013-06-13 09:27:00,
2013-06-13 05:32:00,75.1,72.3,29.95,NW,322,0.0,0.0,91,0.00,,CLR,0.00,0.00,VWS V14.00,2013-06-13 09:32:00,
2013-06-13 05:37:00,75.1,72.3,29.95,NW,322,0.0,0.0,91,0.00,,CLR,0.00,0.00,VWS V14.00,2013-06-13 09:37:00,
2013-06-13 05:42:00,75.1,72.3,29.95,NW,322,0.0,0.0,91,0.00,,CLR,0.00,0.00,VWS V14.00,2013-06-13 09:42:00,
2013-06-13 05:47:00,75.0,72.2,29.95,NW,322,0.0,0.0,91,0.00,,CLR,0.00,0.00,VWS V14.00,2013-06-13 09:47:00,
2013-06-13 05:52:00,75.0,72.2,29.95,NW,322,0.0,0.0,91,0.00,,CLR,0.00,0.00,VWS V14.00,2013-06-13 09:52:00,
2013-06-13 05:57:00,75.0,72.2,29.95,NW,322,0.0,0.0,91,0.00,,CLR,0.00,0.00,VWS V14.00,2013-06-13 09:57:00,
2013-06-13 06:02:00,75.1,72.3,29.95,NW,322,0.0,0.0,91,0.00,,CLR,0.00,0.00,VWS V14.00,2013-06-13 10:02:00,
2013-06-13 06:07:00,75.1,72.3,29.96,NW,322,0.0,0.0,91,0.00,,CLR,0.00,0.00,VWS V14.00,2013-06-13 10:07:00,
2013-06-13 06:12:00,74.9,72.1,29.96,NW,322,0.0,0.0,91,0.00,,CLR,0.00,0.00,VWS V14.00,2013-06-13 10:12:00,
2013-06-13 06:17:00,74.9,72.1,29.95,NW,322,0.0,0.0,91,0.00,,CLR,0.00,0.00,VWS V14.00,2013-06-13 10:17:00,
2013-06-13 06:22:00,75.1,72.3,29.96,NW,322,0.0,0.0,91,0.00,,CLR,0.00,0.00,VWS V14.00,2013-06-13 10:22:00,
2013-06-13 06:27:00,75.1,72.3,29.96,NW,322,2.0,2.0,91,0.00,,CLR,0.00,0.00,VWS V14.00,2013-06-13 10:27:00,
2013-06-13 06:32:00,75.2,72.4,29.96,NW,322,0.0,0.0,91,0.00,,CLR,0.00,0.00,VWS V14.00,2013-06-13 10:32:00,
2013-06-13 06:37:00,75.3,72.5,29.96,NW,322,0.0,0.0,91,0.00,,CLR,0.00,12.00,VWS V14.00,2013-06-13 10:37:00,
2013-06-13 06:42:00,75.5,72.7,29.96,NW,322,0.0,0.0,91,0.00,,CLR,0.00,32.00,VWS V14.00,2013-06-13 10:42:00,
2013-06-13 06:47:00,75.5,72.7,29.96,NW,322,0.0,0.0,91,0.00,,CLR,0.00,30.00,VWS V14.00,2013-06-13 10:47:00,
2013-06-13 06:52:00,75.4,72.6,29.96,NW,322,0.0,0.0,91,0.00,,CLR,0.00,14.00,VWS V14.00,2013-06-13 10:52:00,
2013-06-13 06:57:00,75.4,72.6,29.96,NW,322,0.0,0.0,91,0.00,,CLR,0.00,42.00,VWS V14.00,2013-06-13 10:57:00,
2013-06-13 07:02:00,75.6,72.8,29.96,NW,322,0.0,0.0,91,0.00,,CLR,0.00,23.00,VWS V14.00,2013-06-13 11:02:00,
2013-06-13 07:07:00,75.6,72.8,29.97,North,350,0.0,0.0,91,0.00,,CLR,0.00,21.00,VWS V14.00,2013-06-13 11:07:00,
2013-06-13 07:12:00,75.5,72.7,29.97,North,350,0.0,0.0,91,0.00,,CLR,0.00,39.00,VWS V14.00,2013-06-13 11:12:00,
2013-06-13 07:17:00,75.5,72.7,29.97,North,350,0.0,0.0,91,0.00,,CLR,0.00,46.00,VWS V14.00,2013-06-13 11:17:00,
2013-06-13 07:22:00,75.5,72.7,29.97,NNW,337,0.0,0.0,91,0.00,,CLR,0.00,69.00,VWS V14.00,2013-06-13 11:22:00,
2013-06-13 07:27:00,75.6,72.8,29.97,North,351,0.0,0.0,91,0.00,,CLR,0.00,35.00,VWS V14.00,2013-06-13 11:27:00,
2013-06-13 07:32:00,75.7,72.9,29.97,NNW,344,0.0,0.0,91,0.00,,CLR,0.00,109.00,VWS V14.00,2013-06-13 11:32:00,
2013-06-13 07:37:00,75.8,73.0,29.97,NNW,344,0.0,0.0,91,0.00,,BKN150,0.00,95.00,VWS V14.00,2013-06-13 11:37:00,
2013-06-13 07:42:00,76.1,73.3,29.97,NNW,344,0.0,0.0,91,0.00,,BKN150,0.00,146.00,VWS V14.00,2013-06-13 11:42:00,
2013-06-13 07:47:00,76.3,73.5,29.97,NNW,344,0.0,0.0,91,0.00,,BKN150,0.00,67.00,VWS V14.00,2013-06-13 11:47:00,
2013-06-13 07:52:00,76.4,73.6,29.97,NNW,344,0.0,0.0,91,0.00,,BKN150,0.00,62.00,VWS V14.00,2013-06-13 11:52:00,
2013-06-13 07:57:00,76.4,73.6,29.98,NNW,333,0.0,0.0,91,0.00,,BKN150,0.00,69.00,VWS V14.00,2013-06-13 11:57:00,
2013-06-13 08:02:00,76.5,73.7,29.98,NNW,333,0.0,0.0,91,0.00,,BKN150,0.00,139.00,VWS V14.00,2013-06-13 12:02:00,
2013-06-13 08:07:00,76.7,73.9,29.98,NNW,333,0.0,0.0,91,0.00,,BKN150,0.00,172.00,VWS V14.00,2013-06-13 12:07:00,
2013-06-13 08:12:00,76.9,74.1,29.98,NNW,333,0.0,0.0,91,0.00,,BKN150,0.00,142.00,VWS V14.00,2013-06-13 12:12:00,
2013-06-13 08:17:00,76.9,74.1,29.98,NNW,333,0.0,0.0,91,0.00,,BKN150,0.00,111.00,VWS V14.00,2013-06-13 12:17:00,
2013-06-13 08:22:00,77.0,74.2,29.98,NNW,333,0.0,0.0,91,0.00,,BKN150,0.00,107.00,VWS V14.00,2013-06-13 12:22:00,
2013-06-13 08:27:00,77.2,74.4,29.98,NNW,333,0.0,0.0,91,0.00,,BKN150,0.00,72.00,VWS V14.00,2013-06-13 12:27:00,
2013-06-13 08:32:00,77.2,74.4,29.98,NNW,333,0.0,0.0,91,0.00,,BKN150,0.00,72.00,VWS V14.00,2013-06-13 12:32:00,
2013-06-13 08:37:00,77.4,74.6,29.98,West,263,0.0,0.0,91,0.00,,BKN150,0.00,76.00,VWS V14.00,2013-06-13 12:37:00,
2013-06-13 08:42:00,77.5,74.7,29.98,West,263,0.0,0.0,91,0.00,,BKN150,0.00,74.00,VWS V14.00,2013-06-13 12:42:00,
2013-06-13 08:47:00,77.8,75.0,29.99,West,263,0.0,1.0,91,0.00,,BKN150,0.00,155.00,VWS V14.00,2013-06-13 12:47:00,
2013-06-13 08:52:00,77.9,75.1,29.99,West,263,1.0,1.0,91,0.00,,BKN150,0.00,135.00,VWS V14.00,2013-06-13 12:52:00,
2013-06-13 08:57:00,78.1,75.3,29.99,West,263,0.0,0.0,91,0.00,,BKN150,0.00,116.00,VWS V14.00,2013-06-13 12:57:00,
2013-06-13 09:03:00,78.2,75.0,29.99,West,263,0.0,0.0,90,0.00,,BKN150,0.00,178.00,VWS V14.00,2013-06-13 13:03:00,
2013-06-13 09:08:00,78.3,75.1,29.99,West,263,0.0,1.0,90,0.00,,BKN150,0.00,130.00,VWS V14.00,2013-06-13 13:08:00,
2013-06-13 09:13:00,78.5,75.3,29.99,West,263,0.0,3.0,90,0.00,,BKN150,0.00,179.00,VWS V14.00,2013-06-13 13:13:00,
2013-06-13 09:18:00,78.6,75.4,29.99,West,265,0.0,0.0,90,0.00,,BKN150,0.00,186.00,VWS V14.00,2013-06-13 13:18:00,
2013-06-13 09:23:00,79.0,75.8,29.99,West,265,0.0,1.0,90,0.00,,BKN150,0.00,195.00,VWS V14.00,2013-06-13 13:23:00,
2013-06-13 09:28:00,79.5,76.3,29.99,West,265,0.0,1.0,90,0.00,,BKN150,0.00,204.00,VWS V14.00,2013-06-13 13:28:00,
2013-06-13 09:33:00,80.0,76.5,29.99,West,265,3.0,4.0,89,0.00,,BKN150,0.00,213.00,VWS V14.00,2013-06-13 13:33:00,
2013-06-13 09:38:00,80.2,76.3,29.99,West,267,0.0,0.0,88,0.00,,BKN150,0.00,207.00,VWS V14.00,2013-06-13 13:38:00,
2013-06-13 09:43:00,80.8,76.6,29.99,West,268,0.0,3.0,87,0.00,,BKN150,0.00,132.00,VWS V14.00,2013-06-13 13:43:00,
2013-06-13 09:48:00,81.0,76.4,29.99,West,268,3.0,5.0,86,0.00,,BKN150,0.00,98.00,VWS V14.00,2013-06-13 13:48:00,
2013-06-13 09:53:00,81.3,76.7,30.00,West,268,0.0,0.0,86,0.00,,BKN150,0.00,84.00,VWS V14.00,2013-06-13 13:53:00,
2013-06-13 09:58:00,81.6,76.7,30.00,West,269,4.0,5.0,85,0.00,,BKN150,0.00,232.00,VWS V14.00,2013-06-13 13:58:00,
2013-06-13 10:03:00,81.8,76.1,30.00,West,270,0.0,3.0,83,0.00,,BKN150,0.00,74.00,VWS V14.00,2013-06-13 14:03:00,
2013-06-13 10:08:00,81.6,75.9,30.00,West,270,2.0,4.0,83,0.00,,BKN150,0.00,69.00,VWS V14.00,2013-06-13 14:08:00,
2013-06-13 10:13:00,81.7,76.0,30.00,West,270,0.0,3.0,83,0.00,,BKN150,0.00,72.00,VWS V14.00,2013-06-13 14:13:00,
2013-06-13 10:18:00,81.9,76.2,30.00,West,270,0.0,0.0,83,0.00,,BKN150,0.00,148.00,VWS V14.00,2013-06-13 14:18:00,
2013-06-13 10:23:00,82.4,76.4,30.00,West,270,0.0,2.0,82,0.00,,BKN150,0.00,243.00,VWS V14.00,2013-06-13 14:23:00,
2013-06-13 10:28:00,82.9,76.1,30.00,West,270,3.0,7.0,80,0.00,,BKN150,0.00,243.00,VWS V14.00,2013-06-13 14:28:00,
2013-06-13 10:33:00,82.8,76.0,30.00,West,270,4.0,4.0,80,0.00,,BKN150,0.00,58.00,VWS V14.00,2013-06-13 14:33:00,
2013-06-13 10:38:00,82.7,75.5,30.00,West,271,0.0,0.0,79,0.00,,BKN150,0.00,72.00,VWS V14.00,2013-06-13 14:38:00,
2013-06-13 10:43:00,83.1,76.3,30.00,West,271,0.0,1.0,80,0.00,,BKN150,0.00,65.00,VWS V14.00,2013-06-13 14:43:00,
2013-06-13 10:48:00,83.2,75.6,30.00,West,271,0.0,3.0,78,0.00,,BKN150,0.00,76.00,VWS V14.00,2013-06-13 14:48:00,
2013-06-13 10:53:00,83.5,75.5,30.00,West,271,3.0,3.0,77,0.00,,BKN150,0.00,248.00,VWS V14.00,2013-06-13 14:53:00,
2013-06-13 10:58:00,83.8,75.8,30.00,West,270,2.0,4.0,77,0.00,,BKN150,0.00,230.00,VWS V14.00,2013-06-13 14:58:00,
2013-06-13 11:03:00,84.3,75.5,30.00,West,270,0.0,0.0,75,0.00,,BKN150,0.00,232.00,VWS V14.00,2013-06-13 15:03:00,
2013-06-13 11:08:00,84.8,75.2,30.00,West,263,0.0,1.0,73,0.00,,BKN150,0.00,104.00,VWS V14.00,2013-06-13 15:08:00,
2013-06-13 11:13:00,84.8,75.2,30.00,West,260,0.0,0.0,73,0.00,,BKN150,0.00,46.00,VWS V14.00,2013-06-13 15:13:00,
2013-06-13 11:18:00,84.9,75.3,29.99,West,260,0.0,0.0,73,0.00,,BKN150,0.00,40.00,VWS V14.00,2013-06-13 15:18:00,
2013-06-13 11:23:00,84.8,75.6,30.00,West,260,0.0,0.0,74,0.00,,BKN150,0.00,32.00,VWS V14.00,2013-06-13 15:23:00,
2013-06-13 11:28:00,84.6,74.6,30.00,West,260,0.0,3.0,72,0.00,,BKN150,0.00,26.00,VWS V14.00,2013-06-13 15:28:00,
2013-06-13 11:33:00,84.3,74.3,30.00,West,260,0.0,2.0,72,0.00,,BKN150,0.00,23.00,VWS V14.00,2013-06-13 15:33:00,
2013-06-13 11:38:00,83.6,75.2,30.00,SSE,160,4.0,5.0,76,0.00,,BKN021CU,0.00,21.00,VWS V14.00,2013-06-13 15:38:00,
2013-06-13 11:43:00,82.4,75.6,30.00,SSE,166,5.0,11.0,80,0.00,,BKN021CU,0.00,25.00,VWS V14.00,2013-06-13 15:43:00,
2013-06-13 11:48:00,80.8,75.5,30.00,SSE,165,4.0,4.0,84,0.37,,BKN021CU,0.03,25.00,VWS V14.00,2013-06-13 15:48:00,
2013-06-13 11:53:00,79.6,74.7,30.00,South,175,4.0,9.0,85,0.22,,BKN021CU,0.05,30.00,VWS V14.00,2013-06-13 15:53:00,
2013-06-13 11:58:00,78.8,74.6,30.00,South,172,4.0,5.0,87,0.19,,BKN021CU,0.06,35.00,VWS V14.00,2013-06-13 15:58:00,
2013-06-13 12:03:00,78.5,74.7,30.00,South,172,0.0,3.0,88,0.13,,BKN021CU,0.07,42.00,VWS V14.00,2013-06-13 16:03:00,
2013-06-13 12:08:00,78.2,74.4,30.00,South,172,0.0,0.0,88,0.06,,BKN021CU,0.07,42.00,VWS V14.00,2013-06-13 16:08:00,
2013-06-13 12:13:00,78.1,74.6,30.00,South,172,0.0,1.0,89,0.04,,BKN021CU,0.07,42.00,VWS V14.00,2013-06-13 16:13:00,
2013-06-13 12:18:00,78.1,74.6,30.00,South,172,0.0,0.0,89,0.00,,BKN021CU,0.07,42.00,VWS V14.00,2013-06-13 16:18:00,
2013-06-13 12:23:00,78.2,74.7,30.00,South,172,3.0,4.0,89,0.00,,BKN021CU,0.07,42.00,VWS V14.00,2013-06-13 16:23:00,
2013-06-13 12:28:00,78.2,74.7,30.01,South,172,0.0,3.0,89,0.00,,BKN021CU,0.07,40.00,VWS V14.00,2013-06-13 16:28:00,
2013-06-13 12:33:00,78.3,74.8,30.00,South,172,0.0,0.0,89,0.00,,BKN021CU,0.07,39.00,VWS V14.00,2013-06-13 16:33:00,
2013-06-13 12:38:00,78.2,74.7,30.00,South,172,0.0,0.0,89,0.00,,RA,0.07,39.00,VWS V14.00,2013-06-13 16:38:00,
2013-06-13 12:43:00,78.3,74.8,30.00,South,172,0.0,0.0,89,0.00,,RA,0.07,39.00,VWS V14.00,2013-06-13 16:43:00,
2013-06-13 12:48:00,78.5,75.0,30.00,South,172,7.0,7.0,89,0.00,,RA,0.07,32.00,VWS V14.00,2013-06-13 16:48:00,
2013-06-13 12:54:00,78.3,74.5,30.00,South,174,0.0,1.0,88,0.00,,RA,0.07,37.00,VWS V14.00,2013-06-13 16:54:00,
2013-06-13 12:59:00,77.9,74.1,29.99,South,174,0.0,0.0,88,0.00,,RA,0.07,44.00,VWS V14.00,2013-06-13 16:59:00,
2013-06-13 13:04:00,77.7,73.5,29.99,South,174,0.0,1.0,87,0.00,,RA,0.07,49.00,VWS V14.00,2013-06-13 17:04:00,
2013-06-13 13:09:00,77.7,73.5,29.99,South,174,0.0,3.0,87,0.00,,RA,0.07,53.00,VWS V14.00,2013-06-13 17:09:00,
2013-06-13 13:14:00,77.8,73.6,29.99,South,174,0.0,1.0,87,0.00,,RA,0.07,62.00,VWS V14.00,2013-06-13 17:14:00,
2013-06-13 13:19:00,77.6,73.1,29.99,South,174,0.0,0.0,86,0.00,,RA,0.07,69.00,VWS V14.00,2013-06-13 17:19:00,
2013-06-13 13:24:00,77.5,71.9,29.98,South,174,0.0,0.0,83,0.00,,RA,0.07,81.00,VWS V14.00,2013-06-13 17:24:00,
2013-06-13 13:29:00,77.5,71.9,29.98,South,174,0.0,0.0,83,0.00,,RA,0.07,105.00,VWS V14.00,2013-06-13 17:29:00,
2013-06-13 13:34:00,77.7,71.8,29.98,South,174,0.0,0.0,82,0.00,,RA,0.07,155.00,VWS V14.00,2013-06-13 17:34:00,
2013-06-13 13:39:00,78.3,72.7,29.98,South,174,0.0,1.0,83,0.00,,RA,0.07,213.00,VWS V14.00,2013-06-13 17:39:00,
2013-06-13 13:44:00,79.5,73.9,29.98,South,175,0.0,3.0,83,0.00,,-RA,0.07,216.00,VWS V14.00,2013-06-13 17:44:00,
2013-06-13 13:49:00,80.7,73.2,29.97,South,175,0.0,1.0,78,0.00,,-RA,0.07,230.00,VWS V14.00,2013-06-13 17:49:00,
2013-06-13 13:54:00,81.9,73.6,29.97,South,175,6.0,6.0,76,0.00,,-RA,0.07,227.00,VWS V14.00,2013-06-13 17:54:00,
2013-06-13 13:59:00,82.5,71.7,29.97,South,177,0.0,1.0,70,0.00,,-RA,0.07,225.00,VWS V14.00,2013-06-13 17:59:00,
2013-06-13 14:04:00,83.0,71.4,29.97,South,177,0.0,0.0,68,0.00,,-RA,0.07,220.00,VWS V14.00,2013-06-13 18:04:00,
2013-06-13 14:09:00,83.8,70.8,29.98,South,178,4.0,5.0,65,0.00,,-RA,0.07,216.00,VWS V14.00,2013-06-13 18:09:00,
2013-06-13 14:14:00,84.3,70.8,29.97,South,178,0.0,1.0,64,0.00,,-RA,0.07,214.00,VWS V14.00,2013-06-13 18:14:00,
2013-06-13 14:19:00,85.0,72.4,29.97,South,178,0.0,1.0,66,0.00,,-RA,0.07,211.00,VWS V14.00,2013-06-13 18:19:00,
2013-06-13 14:24:00,85.7,71.7,29.97,SSW,195,0.0,4.0,63,0.00,,-RA,0.07,206.00,VWS V14.00,2013-06-13 18:24:00,
2013-06-13 14:29:00,86.0,73.3,29.97,SSW,204,3.0,5.0,66,0.00,,-RA,0.07,171.00,VWS V14.00,2013-06-13 18:29:00,
2013-06-13 14:34:00,86.0,73.8,29.97,SW,229,3.0,7.0,67,0.00,,-RA,0.07,171.00,VWS V14.00,2013-06-13 18:34:00,
2013-06-13 14:39:00,86.0,72.9,29.96,SW,230,0.0,4.0,65,0.00,,SCT023,0.07,165.00,VWS V14.00,2013-06-13 18:39:00,
2013-06-13 14:44:00,85.8,73.1,29.95,SW,231,0.0,5.0,66,0.00,,SCT023,0.07,179.00,VWS V14.00,2013-06-13 18:44:00,
2013-06-13 14:49:00,86.1,73.9,29.94,SW,231,4.0,4.0,67,0.00,,SCT023,0.07,199.00,VWS V14.00,2013-06-13 18:49:00,
2013-06-13 14:54:00,86.3,73.2,29.94,NW,317,7.0,10.0,65,0.00,,SCT023,0.07,188.00,VWS V14.00,2013-06-13 18:54:00,
2013-06-13 14:59:00,86.2,73.5,29.94,WNW,300,3.0,6.0,66,0.00,,SCT023,0.07,183.00,VWS V14.00,2013-06-13 18:59:00,
2013-06-13 15:04:00,86.8,73.2,29.94,WNW,302,0.0,4.0,64,0.00,,SCT023,0.07,183.00,VWS V14.00,2013-06-13 19:04:00,
2013-06-13 15:09:00,87.0,73.4,29.94,WNW,300,3.0,7.0,64,0.00,,SCT023,0.07,114.00,VWS V14.00,2013-06-13 19:09:00,
2013-06-13 15:14:00,86.9,73.7,29.94,NW,309,6.0,7.0,65,0.00,,SCT023,0.07,186.00,VWS V14.00,2013-06-13 19:14:00,
2013-06-13 15:19:00,86.8,73.6,29.95,NW,309,2.0,6.0,65,0.00,,SCT023,0.07,183.00,VWS V14.00,2013-06-13 19:19:00,
2013-06-13 15:24:00,87.2,74.0,29.95,WNW,301,0.0,1.0,65,0.00,,SCT023,0.07,185.00,VWS V14.00,2013-06-13 19:24:00,
2013-06-13 15:29:00,87.5,72.9,29.94,West,278,4.0,6.0,62,0.00,,SCT023,0.07,178.00,VWS V14.00,2013-06-13 19:29:00,
2013-06-13 15:34:00,87.5,72.9,29.94,WNW,294,2.0,7.0,62,0.00,,SCT023,0.07,171.00,VWS V14.00,2013-06-13 19:34:00,
2013-06-13 15:39:00,87.0,72.9,29.93,NNW,327,2.0,3.0,63,0.00,,SCT023,0.07,139.00,VWS V14.00,2013-06-13 19:39:00,
2013-06-13 15:44:00,87.3,71.2,29.93,WNW,283,4.0,6.0,59,0.00,,SCT023,0.07,132.00,VWS V14.00,2013-06-13 19:44:00,
2013-06-13 15:49:00,87.4,72.3,29.93,WNW,296,0.0,4.0,61,0.00,,SCT023,0.07,132.00,VWS V14.00,2013-06-13 19:49:00,
2013-06-13 15:54:00,87.5,72.9,29.93,WNW,303,4.0,7.0,62,0.00,,SCT023,0.07,132.00,VWS V14.00,2013-06-13 19:54:00,
2013-06-13 15:59:00,87.4,71.8,29.92,WNW,292,4.0,5.0,60,0.00,,SCT023,0.07,100.00,VWS V14.00,2013-06-13 19:59:00,
2013-06-13 16:04:00,87.4,72.3,29.93,WNW,294,6.0,9.0,61,0.00,,SCT023,0.07,93.00,VWS V14.00,2013-06-13 20:04:00,
2013-06-13 16:09:00,87.2,73.1,29.93,West,276,6.0,6.0,63,0.00,,SCT023,0.07,118.00,VWS V14.00,2013-06-13 20:09:00,
2013-06-13 16:14:00,87.2,73.1,29.93,WSW,257,3.0,8.0,63,0.00,,SCT023,0.07,130.00,VWS V14.00,2013-06-13 20:14:00,
2013-06-13 16:19:00,87.0,74.7,29.93,West,273,11.0,12.0,67,0.00,,SCT023,0.07,67.00,VWS V14.00,2013-06-13 20:19:00,
2013-06-13 16:24:00,85.8,74.5,29.93,West,265,8.0,12.0,69,0.00,,SCT023,0.07,58.00,VWS V14.00,2013-06-13 20:24:00,
2013-06-13 16:29:00,84.8,73.9,29.93,West,266,4.0,11.0,70,0.00,,SCT023,0.07,53.00,VWS V14.00,2013-06-13 20:29:00,
2013-06-13 16:34:00,84.3,73.9,29.93,West,270,4.0,7.0,71,0.00,,SCT023,0.07,49.00,VWS V14.00,2013-06-13 20:34:00,
2013-06-13 16:40:00,83.8,73.4,29.93,West,275,5.0,10.0,71,0.00,,SCT023,0.07,46.00,VWS V14.00,2013-06-13 20:40:00,
2013-06-13 16:45:00,83.4,73.4,29.92,West,279,7.0,7.0,72,0.00,,SCT023,0.07,44.00,VWS V14.00,2013-06-13 20:45:00,
2013-06-13 16:50:00,82.9,72.9,29.92,West,280,3.0,6.0,72,0.00,,SCT023,0.07,44.00,VWS V14.00,2013-06-13 20:50:00,
2013-06-13 16:55:00,82.5,73.0,29.91,WNW,286,5.0,9.0,73,0.00,,SCT023,0.07,44.00,VWS V14.00,2013-06-13 20:55:00,
2013-06-13 17:00:00,82.2,73.1,29.91,WNW,288,2.0,4.0,74,0.00,,SCT023,0.07,44.00,VWS V14.00,2013-06-13 21:00:00,
2013-06-13 17:05:00,82.0,72.5,29.91,West,278,3.0,5.0,73,0.00,,SCT023,0.07,46.00,VWS V14.00,2013-06-13 21:05:00,
2013-06-13 17:10:00,82.0,72.9,29.91,West,277,3.0,5.0,74,0.00,,SCT023,0.07,49.00,VWS V14.00,2013-06-13 21:10:00,
2013-06-13 17:15:00,81.9,72.8,29.91,West,268,5.0,7.0,74,0.00,,SCT023,0.07,53.00,VWS V14.00,2013-06-13 21:15:00,
2013-06-13 17:20:00,81.7,72.6,29.91,West,259,5.0,7.0,74,0.00,,SCT023,0.07,56.00,VWS V14.00,2013-06-13 21:20:00,
2013-06-13 17:25:00,81.6,72.9,29.91,West,261,0.0,5.0,75,0.00,,SCT023,0.07,58.00,VWS V14.00,2013-06-13 21:25:00,
2013-06-13 17:30:00,81.6,72.9,29.90,West,263,5.0,5.0,75,0.00,,SCT023,0.07,62.00,VWS V14.00,2013-06-13 21:30:00,
2013-06-13 17:35:00,81.6,72.9,29.91,West,267,4.0,11.0,75,0.00,,SCT055,0.07,62.00,VWS V14.00,2013-06-13 21:35:00,
2013-06-13 17:40:00,81.6,72.9,29.90,West,267,4.0,5.0,75,0.00,,SCT055,0.07,62.00,VWS V14.00,2013-06-13 21:40:00,
2013-06-13 17:45:00,81.6,72.9,29.91,West,266,1.0,4.0,75,0.00,,SCT055,0.07,65.00,VWS V14.00,2013-06-13 21:45:00,
2013-06-13 17:50:00,81.6,72.9,29.91,West,265,4.0,7.0,75,0.00,,SCT055,0.07,69.00,VWS V14.00,2013-06-13 21:50:00,
2013-06-13 17:55:00,81.7,73.0,29.91,West,265,0.0,5.0,75,0.00,,SCT055,0.07,67.00,VWS V14.00,2013-06-13 21:55:00,
2013-06-13 18:00:00,82.0,73.7,29.92,West,265,2.0,5.0,76,0.00,,SCT055,0.07,69.00,VWS V14.00,2013-06-13 22:00:00,
2013-06-13 18:05:00,82.1,74.2,29.92,West,267,2.0,6.0,77,0.00,,SCT055,0.07,63.00,VWS V14.00,2013-06-13 22:05:00,
2013-06-13 18:10:00,82.0,74.1,29.91,West,267,2.0,5.0,77,0.00,,SCT055,0.07,67.00,VWS V14.00,2013-06-13 22:10:00,
2013-06-13 18:15:00,82.0,73.7,29.91,West,267,1.0,2.0,76,0.00,,SCT055,0.07,62.00,VWS V14.00,2013-06-13 22:15:00,
2013-06-13 18:20:00,82.0,73.7,29.90,West,267,0.0,1.0,76,0.00,,SCT055,0.07,63.00,VWS V14.00,2013-06-13 22:20:00,
2013-06-13 18:25:00,82.1,73.4,29.90,West,267,3.0,3.0,75,0.00,,SCT055,0.07,67.00,VWS V14.00,2013-06-13 22:25:00,
2013-06-13 18:30:00,82.2,73.5,29.90,West,267,4.0,5.0,75,0.00,,SCT055,0.07,65.00,VWS V14.00,2013-06-13 22:30:00,
2013-06-13 18:35:00,82.2,73.5,29.90,West,267,0.0,0.0,75,0.00,,SCT055,0.07,63.00,VWS V14.00,2013-06-13 22:35:00,
2013-06-13 18:40:00,82.3,74.0,29.90,West,267,2.0,3.0,76,0.00,,SCT110,0.07,63.00,VWS V14.00,2013-06-13 22:40:00,
2013-06-13 18:45:00,82.4,74.1,29.91,West,267,0.0,1.0,76,0.00,,SCT110,0.07,63.00,VWS V14.00,2013-06-13 22:45:00,
2013-06-13 18:50:00,82.4,74.1,29.91,West,267,4.0,4.0,76,0.00,,SCT110,0.07,62.00,VWS V14.00,2013-06-13 22:50:00,
2013-06-13 18:55:00,82.4,74.1,29.91,West,267,4.0,5.0,76,0.00,,SCT110,0.07,37.00,VWS V14.00,2013-06-13 22:55:00,
2013-06-13 19:00:00,82.3,74.0,29.91,West,267,0.0,0.0,76,0.00,,SCT110,0.07,32.00,VWS V14.00,2013-06-13 23:00:00,
2013-06-13 19:05:00,82.1,73.8,29.91,West,267,0.0,5.0,76,0.00,,SCT110,0.07,28.00,VWS V14.00,2013-06-13 23:05:00,
2013-06-13 19:10:00,81.9,74.0,29.91,West,267,0.0,1.0,77,0.00,,SCT110,0.07,23.00,VWS V14.00,2013-06-13 23:10:00,
2013-06-13 19:15:00,81.8,73.9,29.91,West,267,0.0,1.0,77,0.00,,SCT110,0.07,21.00,VWS V14.00,2013-06-13 23:15:00,
2013-06-13 19:20:00,81.7,73.8,29.91,West,267,0.0,0.0,77,0.00,,SCT110,0.07,19.00,VWS V14.00,2013-06-13 23:20:00,
2013-06-13 19:25:00,81.6,73.7,29.90,West,267,0.0,0.0,77,0.00,,SCT110,0.07,18.00,VWS V14.00,2013-06-13 23:25:00,
2013-06-13 19:30:00,81.5,73.6,29.90,West,267,0.0,0.0,77,0.00,,SCT110,0.07,16.00,VWS V14.00,2013-06-13 23:30:00,
2013-06-13 19:35:00,81.4,73.1,29.90,West,267,0.0,0.0,76,0.00,,SCT110,0.07,16.00,VWS V14.00,2013-06-13 23:35:00,
2013-06-13 19:40:00,81.4,73.5,29.90,West,267,0.0,1.0,77,0.00,,SCT110,0.07,18.00,VWS V14.00,2013-06-13 23:40:00,
2013-06-13 19:45:00,81.4,73.5,29.90,West,267,0.0,0.0,77,0.00,,SCT110,0.07,12.00,VWS V14.00,2013-06-13 23:45:00,
2013-06-13 19:50:00,81.3,73.4,29.90,West,267,0.0,0.0,77,0.00,,SCT110,0.07,11.00,VWS V14.00,2013-06-13 23:50:00,
2013-06-13 19:55:00,81.2,73.3,29.89,West,267,0.0,0.0,77,0.00,,SCT110,0.07,9.00,VWS V14.00,2013-06-13 23:55:00,
2013-06-13 20:00:00,81.1,73.2,29.90,West,267,0.0,0.0,77,0.00,,SCT110,0.07,5.00,VWS V14.00,2013-06-14 00:00:00,
2013-06-13 20:05:00,81.0,73.1,29.90,West,267,0.0,0.0,77,0.00,,SCT110,0.07,0.00,VWS V14.00,2013-06-14 00:05:00,
2013-06-13 20:10:00,81.0,73.1,29.91,West,267,0.0,0.0,77,0.00,,SCT110,0.07,0.00,VWS V14.00,2013-06-14 00:10:00,
2013-06-13 20:15:00,80.9,73.0,29.91,West,267,0.0,0.0,77,0.00,,SCT120,0.07,0.00,VWS V14.00,2013-06-14 00:15:00,
2013-06-13 20:20:00,80.9,73.4,29.91,West,267,0.0,0.0,78,0.00,,SCT120,0.07,0.00,VWS V14.00,2013-06-14 00:20:00,
2013-06-13 20:25:00,80.7,73.2,29.91,West,267,0.0,0.0,78,0.00,,SCT120,0.07,0.00,VWS V14.00,2013-06-14 00:25:00,
2013-06-13 20:30:00,80.6,73.1,29.90,West,267,0.0,0.0,78,0.00,,SCT120,0.07,0.00,VWS V14.00,2013-06-14 00:30:00,
2013-06-13 20:35:00,80.5,73.4,29.91,West,267,0.0,0.0,79,0.00,,SCT120,0.07,0.00,VWS V14.00,2013-06-14 00:35:00,
2013-06-13 20:40:00,80.3,73.2,29.91,West,267,0.0,0.0,79,0.00,,SCT120,0.07,0.00,VWS V14.00,2013-06-14 00:40:00,
2013-06-13 20:45:00,80.3,73.6,29.92,West,267,0.0,0.0,80,0.00,,SCT120,0.07,0.00,VWS V14.00,2013-06-14 00:45:00,
2013-06-13 20:50:00,80.1,73.0,29.92,West,267,0.0,0.0,79,0.00,,SCT120,0.07,0.00,VWS V14.00,2013-06-14 00:50:00,
2013-06-13 20:55:00,79.9,72.8,29.92,West,267,0.0,0.0,79,0.00,,SCT120,0.07,0.00,VWS V14.00,2013-06-14 00:55:00,
2013-06-13 21:00:00,79.9,72.8,29.92,West,267,0.0,0.0,79,0.00,,SCT120,0.07,0.00,VWS V14.00,2013-06-14 01:00:00,
2013-06-13 21:05:00,79.8,73.1,29.92,West,267,0.0,0.0,80,0.00,,SCT120,0.07,0.00,VWS V14.00,2013-06-14 01:05:00,
2013-06-13 21:10:00,79.8,73.4,29.92,West,267,0.0,0.0,81,0.00,,SCT120,0.07,0.00,VWS V14.00,2013-06-14 01:10:00,
2013-06-13 21:15:00,79.7,73.0,29.93,West,267,0.0,0.0,80,0.00,,SCT120,0.07,0.00,VWS V14.00,2013-06-14 01:15:00,
2013-06-13 21:20:00,79.6,72.5,29.93,West,267,1.0,2.0,79,0.00,,SCT120,0.07,0.00,VWS V14.00,2013-06-14 01:20:00,
2013-06-13 21:25:00,79.6,72.5,29.93,West,267,0.0,0.0,79,0.00,,SCT120,0.07,0.00,VWS V14.00,2013-06-14 01:25:00,
2013-06-13 21:30:00,79.5,72.4,29.93,West,267,0.0,0.0,79,0.00,,SCT120,0.07,0.00,VWS V14.00,2013-06-14 01:30:00,
2013-06-13 21:35:00,79.5,72.4,29.93,West,267,0.0,1.0,79,0.00,,SCT120,0.07,0.00,VWS V14.00,2013-06-14 01:35:00,
2013-06-13 21:40:00,79.4,72.3,29.92,West,267,0.0,0.0,79,0.00,,FEW026,0.07,0.00,VWS V14.00,2013-06-14 01:40:00,
2013-06-13 21:45:00,79.3,72.2,29.92,West,267,0.0,0.0,79,0.00,,FEW026,0.07,0.00,VWS V14.00,2013-06-14 01:45:00,
2013-06-13 21:50:00,79.2,72.5,29.92,West,267,0.0,0.0,80,0.00,,FEW026,0.07,0.00,VWS V14.00,2013-06-14 01:50:00,
2013-06-13 21:55:00,79.1,72.4,29.92,West,267,0.0,0.0,80,0.00,,FEW026,0.07,0.00,VWS V14.00,2013-06-14 01:55:00,
2013-06-13 22:00:00,79.0,72.7,29.92,West,267,0.0,0.0,81,0.00,,FEW026,0.07,0.00,VWS V14.00,2013-06-14 02:00:00,
2013-06-13 22:05:00,78.9,72.2,29.92,West,267,0.0,0.0,80,0.00,,FEW026,0.07,0.00,VWS V14.00,2013-06-14 02:05:00,
2013-06-13 22:10:00,78.7,72.0,29.92,West,267,0.0,0.0,80,0.00,,FEW026,0.07,0.00,VWS V14.00,2013-06-14 02:10:00,
2013-06-13 22:15:00,78.5,71.8,29.93,West,267,0.0,0.0,80,0.00,,FEW026,0.07,0.00,VWS V14.00,2013-06-14 02:15:00,
2013-06-13 22:20:00,78.3,71.6,29.93,West,267,0.0,0.0,80,0.00,,FEW026,0.07,0.00,VWS V14.00,2013-06-14 02:20:00,
2013-06-13 22:26:00,78.1,71.4,29.92,West,267,0.0,0.0,80,0.00,,FEW026,0.07,0.00,VWS V14.00,2013-06-14 02:26:00,
2013-06-13 22:31:00,78.0,71.7,29.92,West,267,0.0,0.0,81,0.00,,FEW026,0.07,0.00,VWS V14.00,2013-06-14 02:31:00,
2013-06-13 22:36:00,77.9,71.6,29.93,West,267,0.0,0.0,81,0.00,,FEW026,0.07,0.00,VWS V14.00,2013-06-14 02:36:00,
2013-06-13 22:41:00,77.8,71.5,29.93,West,267,0.0,0.0,81,0.00,,FEW026,0.07,0.00,VWS V14.00,2013-06-14 02:41:00,
2013-06-13 22:46:00,77.6,71.3,29.93,West,267,0.0,0.0,81,0.00,,FEW026,0.07,0.00,VWS V14.00,2013-06-14 02:46:00,
2013-06-13 22:51:00,77.5,71.6,29.92,West,267,0.0,0.0,82,0.00,,FEW026,0.07,0.00,VWS V14.00,2013-06-14 02:51:00,
2013-06-13 22:56:00,77.5,71.6,29.92,West,267,0.0,0.0,82,0.00,,FEW026,0.07,0.00,VWS V14.00,2013-06-14 02:56:00,
2013-06-13 23:01:00,77.4,71.5,29.93,West,267,0.0,0.0,82,0.00,,FEW026,0.07,0.00,VWS V14.00,2013-06-14 03:01:00,
2013-06-13 23:06:00,77.5,71.6,29.92,West,267,0.0,0.0,82,0.00,,FEW026,0.07,0.00,VWS V14.00,2013-06-14 03:06:00,
2013-06-13 23:11:00,77.5,71.6,29.93,West,267,0.0,0.0,82,0.00,,FEW026,0.07,0.00,VWS V14.00,2013-06-14 03:11:00,
2013-06-13 23:16:00,77.5,71.6,29.93,West,267,0.0,0.0,82,0.00,,FEW026,0.07,0.00,VWS V14.00,2013-06-14 03:16:00,
2013-06-13 23:21:00,77.4,71.8,29.93,West,267,0.0,0.0,83,0.00,,FEW026,0.07,0.00,VWS V14.00,2013-06-14 03:21:00,
2013-06-13 23:26:00,77.4,71.8,29.93,West,267,0.0,1.0,83,0.00,,FEW026,0.07,0.00,VWS V14.00,2013-06-14 03:26:00,
2013-06-13 23:31:00,77.3,71.7,29.92,West,267,0.0,0.0,83,0.00,,FEW026,0.07,0.00,VWS V14.00,2013-06-14 03:31:00,
2013-06-13 23:36:00,77.1,71.5,29.92,West,267,0.0,0.0,83,0.00,,FEW026,0.07,0.00,VWS V14.00,2013-06-14 03:36:00,
2013-06-13 23:41:00,77.0,71.8,29.92,West,267,0.0,0.0,84,0.00,,FEW026,0.07,0.00,VWS V14.00,2013-06-14 03:41:00,
2013-06-13 23:46:00,76.9,71.7,29.92,West,267,0.0,0.0,84,0.00,,FEW026,0.07,0.00,VWS V14.00,2013-06-14 03:46:00,
2013-06-13 23:51:00,76.8,71.6,29.92,West,267,0.0,0.0,84,0.00,,FEW026,0.07,0.00,VWS V14.00,2013-06-14 03:51:00,
2013-06-13 23:56:00,76.7,71.9,29.92,West,267,0.0,0.0,85,0.00,,FEW026,0.07,0.00,VWS V14.00,2013-06-14 03:56:00,